sensor_id;sensor_type;location;lat;lon;timestamp;pressure;altitude;pressure_sealevel;temperature;humidity
10720;BME280;5411;58.386;15.560;2023-06-26T00:02:09;100528.59;;;18.53;85.21
10720;BME280;5411;58.386;15.560;2023-06-26T00:04:37;100522.34;;;18.52;84.94
10720;BME280;5411;58.386;15.560;2023-06-26T00:07:06;100525.59;;;18.49;86.50
10720;BME280;5411;58.386;15.560;2023-06-26T00:09:35;100535.63;;;18.49;86.22
10720;BME280;5411;58.386;15.560;2023-06-26T00:12:05;100533.41;;;18.46;86.28
10720;BME280;5411;58.386;15.560;2023-06-26T00:14:35;100528.66;;;18.36;86.85
10720;BME280;5411;58.386;15.560;2023-06-26T00:17:03;100531.53;;;18.30;87.99
10720;BME280;5411;58.386;15.560;2023-06-26T00:19:34;100529.50;;;18.20;88.43
10720;BME280;5411;58.386;15.560;2023-06-26T00:22:03;100516.66;;;18.10;88.79
10720;BME280;5411;58.386;15.560;2023-06-26T00:24:32;100525.19;;;18.02;88.75
10720;BME280;5411;58.386;15.560;2023-06-26T00:27:00;100518.31;;;17.95;89.32
10720;BME280;5411;58.386;15.560;2023-06-26T00:29:29;100521.97;;;17.89;88.94
10720;BME280;5411;58.386;15.560;2023-06-26T00:31:59;100514.88;;;17.83;89.40
10720;BME280;5411;58.386;15.560;2023-06-26T00:34:27;100517.97;;;17.74;90.20
10720;BME280;5411;58.386;15.560;2023-06-26T00:36:56;100516.56;;;17.72;90.12
10720;BME280;5411;58.386;15.560;2023-06-26T00:39:24;100515.19;;;17.69;90.08
10720;BME280;5411;58.386;15.560;2023-06-26T00:41:58;100508.03;;;17.63;91.12
10720;BME280;5411;58.386;15.560;2023-06-26T00:44:27;100514.50;;;17.62;90.83
10720;BME280;5411;58.386;15.560;2023-06-26T00:46:55;100516.03;;;17.58;91.04
10720;BME280;5411;58.386;15.560;2023-06-26T00:49:31;100522.78;;;17.56;91.93
10720;BME280;5411;58.386;15.560;2023-06-26T00:51:59;100522.19;;;17.54;91.27
10720;BME280;5411;58.386;15.560;2023-06-26T00:54:31;100512.69;;;17.51;92.43
10720;BME280;5411;58.386;15.560;2023-06-26T00:57:00;100507.75;;;17.48;91.44
10720;BME280;5411;58.386;15.560;2023-06-26T00:59:30;100518.81;;;17.46;92.25
10720;BME280;5411;58.386;15.560;2023-06-26T01:01:59;100518.50;;;17.43;92.31
10720;BME280;5411;58.386;15.560;2023-06-26T01:04:29;100509.69;;;17.36;92.28
10720;BME280;5411;58.386;15.560;2023-06-26T01:07:07;100516.19;;;17.35;92.21
10720;BME280;5411;58.386;15.560;2023-06-26T01:09:35;100502.81;;;17.28;92.49
10720;BME280;5411;58.386;15.560;2023-06-26T01:12:04;100510.69;;;17.30;92.72
10720;BME280;5411;58.386;15.560;2023-06-26T01:14:34;100513.88;;;17.27;93.20
10720;BME280;5411;58.386;15.560;2023-06-26T01:17:07;100513.78;;;17.22;93.39
10720;BME280;5411;58.386;15.560;2023-06-26T01:19:40;100509.66;;;17.19;93.07
10720;BME280;5411;58.386;15.560;2023-06-26T01:22:17;100504.75;;;17.16;93.52
10720;BME280;5411;58.386;15.560;2023-06-26T01:24:59;100510.88;;;17.12;93.77
10720;BME280;5411;58.386;15.560;2023-06-26T01:27:42;100501.63;;;17.07;94.11
10720;BME280;5411;58.386;15.560;2023-06-26T01:30:15;100509.97;;;17.06;94.46
10720;BME280;5411;58.386;15.560;2023-06-26T01:32:47;100497.19;;;17.01;95.14
10720;BME280;5411;58.386;15.560;2023-06-26T01:35:18;100491.19;;;16.99;94.92
10720;BME280;5411;58.386;15.560;2023-06-26T01:37:49;100493.31;;;16.97;94.82
10720;BME280;5411;58.386;15.560;2023-06-26T01:40:18;100488.38;;;16.94;95.03
10720;BME280;5411;58.386;15.560;2023-06-26T01:42:49;100483.72;;;16.90;96.17
10720;BME280;5411;58.386;15.560;2023-06-26T01:45:28;100490.44;;;16.87;95.68
10720;BME280;5411;58.386;15.560;2023-06-26T01:48:00;100494.44;;;16.85;95.86
10720;BME280;5411;58.386;15.560;2023-06-26T01:50:32;100490.56;;;16.81;96.27
10720;BME280;5411;58.386;15.560;2023-06-26T01:53:11;100481.31;;;16.77;95.81
10720;BME280;5411;58.386;15.560;2023-06-26T01:55:47;100482.59;;;16.74;96.53
10720;BME280;5411;58.386;15.560;2023-06-26T01:58:22;100480.38;;;16.71;96.81
10720;BME280;5411;58.386;15.560;2023-06-26T02:00:57;100485.09;;;16.64;97.59
10720;BME280;5411;58.386;15.560;2023-06-26T02:03:28;100477.25;;;16.62;97.73
10720;BME280;5411;58.386;15.560;2023-06-26T02:05:57;100478.06;;;16.63;97.28
10720;BME280;5411;58.386;15.560;2023-06-26T02:08:26;100478.50;;;16.60;97.62
10720;BME280;5411;58.386;15.560;2023-06-26T02:10:55;100476.28;;;16.57;98.39
10720;BME280;5411;58.386;15.560;2023-06-26T02:13:28;100476.50;;;16.55;98.75
10720;BME280;5411;58.386;15.560;2023-06-26T02:16:01;100473.81;;;16.55;98.85
10720;BME280;5411;58.386;15.560;2023-06-26T02:18:31;100482.38;;;16.52;100.00
10720;BME280;5411;58.386;15.560;2023-06-26T02:20:59;100475.84;;;16.48;100.00
10720;BME280;5411;58.386;15.560;2023-06-26T02:23:29;100472.78;;;16.45;100.00
10720;BME280;5411;58.386;15.560;2023-06-26T02:26:05;100474.66;;;16.44;100.00
10720;BME280;5411;58.386;15.560;2023-06-26T02:28:35;100472.19;;;16.43;100.00
10720;BME280;5411;58.386;15.560;2023-06-26T02:31:05;100476.19;;;16.40;100.00
10720;BME280;5411;58.386;15.560;2023-06-26T02:33:37;100469.97;;;16.39;100.00
10720;BME280;5411;58.386;15.560;2023-06-26T02:36:07;100468.91;;;16.40;100.00
10720;BME280;5411;58.386;15.560;2023-06-26T02:38:42;100475.72;;;16.43;100.00
10720;BME280;5411;58.386;15.560;2023-06-26T02:41:16;100465.97;;;16.42;100.00
10720;BME280;5411;58.386;15.560;2023-06-26T02:43:46;100463.84;;;16.44;100.00
10720;BME280;5411;58.386;15.560;2023-06-26T02:46:14;100461.75;;;16.46;100.00
10720;BME280;5411;58.386;15.560;2023-06-26T02:48:47;100460.69;;;16.47;100.00
10720;BME280;5411;58.386;15.560;2023-06-26T02:51:16;100465.94;;;16.54;100.00
10720;BME280;5411;58.386;15.560;2023-06-26T02:53:48;100469.91;;;16.74;100.00
10720;BME280;5411;58.386;15.560;2023-06-26T02:56:17;100468.84;;;17.04;99.69
10720;BME280;5411;58.386;15.560;2023-06-26T02:58:47;100466.44;;;17.36;98.45
10720;BME280;5411;58.386;15.560;2023-06-26T03:01:15;100457.19;;;17.65;96.66
10720;BME280;5411;58.386;15.560;2023-06-26T03:03:44;100457.72;;;18.01;95.10
10720;BME280;5411;58.386;15.560;2023-06-26T03:06:14;100452.72;;;18.31;92.88
10720;BME280;5411;58.386;15.560;2023-06-26T03:08:43;100453.97;;;18.62;91.19
10720;BME280;5411;58.386;15.560;2023-06-26T03:11:11;100450.75;;;18.92;89.09
10720;BME280;5411;58.386;15.560;2023-06-26T03:13:40;100451.00;;;19.17;87.40
10720;BME280;5411;58.386;15.560;2023-06-26T03:16:10;100452.88;;;19.44;85.55
10720;BME280;5411;58.386;15.560;2023-06-26T03:18:39;100445.72;;;19.65;84.34
10720;BME280;5411;58.386;15.560;2023-06-26T03:21:09;100455.91;;;19.84;82.96
10720;BME280;5411;58.386;15.560;2023-06-26T03:23:39;100448.41;;;20.02;82.08
10720;BME280;5411;58.386;15.560;2023-06-26T03:26:12;100443.63;;;20.19;80.81
10720;BME280;5411;58.386;15.560;2023-06-26T03:28:41;100455.16;;;20.36;79.32
10720;BME280;5411;58.386;15.560;2023-06-26T03:31:11;100452.22;;;20.53;78.22
10720;BME280;5411;58.386;15.560;2023-06-26T03:33:42;100444.38;;;20.67;77.98
10720;BME280;5411;58.386;15.560;2023-06-26T03:36:11;100443.34;;;20.83;77.02
10720;BME280;5411;58.386;15.560;2023-06-26T03:38:39;100442.03;;;21.01;75.96
10720;BME280;5411;58.386;15.560;2023-06-26T03:41:09;100439.34;;;21.16;75.50
10720;BME280;5411;58.386;15.560;2023-06-26T03:43:51;100440.72;;;21.28;74.92
10720;BME280;5411;58.386;15.560;2023-06-26T03:46:24;100426.03;;;21.40;75.21
10720;BME280;5411;58.386;15.560;2023-06-26T03:48:52;100430.91;;;21.58;74.94
10720;BME280;5411;58.386;15.560;2023-06-26T03:51:21;100436.06;;;21.75;73.57
10720;BME280;5411;58.386;15.560;2023-06-26T03:53:52;100434.69;;;21.87;72.69
10720;BME280;5411;58.386;15.560;2023-06-26T03:56:22;100426.47;;;21.97;72.63
10720;BME280;5411;58.386;15.560;2023-06-26T03:58:51;100432.50;;;22.04;72.22
10720;BME280;5411;58.386;15.560;2023-06-26T04:01:22;100418.88;;;22.10;72.55
10720;BME280;5411;58.386;15.560;2023-06-26T04:03:53;100423.19;;;22.16;72.51
10720;BME280;5411;58.386;15.560;2023-06-26T04:06:24;100428.91;;;22.19;72.77
10720;BME280;5411;58.386;15.560;2023-06-26T04:08:58;100431.91;;;22.23;72.82
10720;BME280;5411;58.386;15.560;2023-06-26T04:11:26;100428.06;;;22.29;72.82
10720;BME280;5411;58.386;15.560;2023-06-26T04:13:57;100424.22;;;22.35;72.02
10720;BME280;5411;58.386;15.560;2023-06-26T04:16:29;100424.72;;;22.42;72.46
10720;BME280;5411;58.386;15.560;2023-06-26T04:18:57;100423.34;;;22.45;72.11
10720;BME280;5411;58.386;15.560;2023-06-26T04:21:26;100423.63;;;22.48;72.46
10720;BME280;5411;58.386;15.560;2023-06-26T04:23:55;100420.34;;;22.46;72.46
10720;BME280;5411;58.386;15.560;2023-06-26T04:26:25;100418.19;;;22.43;72.63
10720;BME280;5411;58.386;15.560;2023-06-26T04:28:54;100418.72;;;22.45;72.93
10720;BME280;5411;58.386;15.560;2023-06-26T04:31:24;100418.19;;;22.43;72.67
10720;BME280;5411;58.386;15.560;2023-06-26T04:33:54;100421.72;;;22.38;72.70
10720;BME280;5411;58.386;15.560;2023-06-26T04:36:22;100419.31;;;22.37;72.55
10720;BME280;5411;58.386;15.560;2023-06-26T04:38:58;100415.22;;;22.34;73.24
10720;BME280;5411;58.386;15.560;2023-06-26T04:41:31;100411.13;;;22.32;72.77
10720;BME280;5411;58.386;15.560;2023-06-26T04:44:03;100413.59;;;22.33;72.71
10720;BME280;5411;58.386;15.560;2023-06-26T04:46:34;100411.69;;;22.34;72.98
10720;BME280;5411;58.386;15.560;2023-06-26T04:49:07;100410.81;;;22.38;72.71
10720;BME280;5411;58.386;15.560;2023-06-26T04:51:41;100417.63;;;22.41;72.43
10720;BME280;5411;58.386;15.560;2023-06-26T04:54:10;100409.47;;;22.41;73.04
10720;BME280;5411;58.386;15.560;2023-06-26T04:56:39;100408.91;;;22.44;72.77
10720;BME280;5411;58.386;15.560;2023-06-26T04:59:08;100408.34;;;22.47;72.12
10720;BME280;5411;58.386;15.560;2023-06-26T05:01:40;100405.06;;;22.50;72.71
10720;BME280;5411;58.386;15.560;2023-06-26T05:04:23;100399.28;;;22.57;72.23
10720;BME280;5411;58.386;15.560;2023-06-26T05:06:52;100408.78;;;22.64;72.71
10720;BME280;5411;58.386;15.560;2023-06-26T05:09:23;100401.66;;;22.73;72.44
10720;BME280;5411;58.386;15.560;2023-06-26T05:11:58;100400.50;;;22.85;71.20
10720;BME280;5411;58.386;15.560;2023-06-26T05:14:39;100402.63;;;22.93;71.00
10720;BME280;5411;58.386;15.560;2023-06-26T05:17:10;100394.97;;;22.95;69.85
10720;BME280;5411;58.386;15.560;2023-06-26T05:19:42;100397.72;;;22.95;69.45
10720;BME280;5411;58.386;15.560;2023-06-26T05:22:19;100403.97;;;23.00;69.76
10720;BME280;5411;58.386;15.560;2023-06-26T05:24:49;100406.34;;;23.07;70.64
10720;BME280;5411;58.386;15.560;2023-06-26T05:27:19;100394.41;;;23.03;70.34
10720;BME280;5411;58.386;15.560;2023-06-26T05:29:52;100400.03;;;23.17;70.64
10720;BME280;5411;58.386;15.560;2023-06-26T05:32:21;100393.13;;;23.24;70.05
10720;BME280;5411;58.386;15.560;2023-06-26T05:34:57;100393.94;;;23.25;70.41
10720;BME280;5411;58.386;15.560;2023-06-26T05:37:31;100385.94;;;23.33;71.49
10720;BME280;5411;58.386;15.560;2023-06-26T05:40:02;100381.19;;;23.44;71.96
10720;BME280;5411;58.386;15.560;2023-06-26T05:42:34;100385.25;;;23.46;70.44
10720;BME280;5411;58.386;15.560;2023-06-26T05:45:05;100385.50;;;23.50;71.29
10720;BME280;5411;58.386;15.560;2023-06-26T05:47:34;100384.34;;;23.61;71.93
10720;BME280;5411;58.386;15.560;2023-06-26T05:50:07;100388.31;;;23.74;70.62
10720;BME280;5411;58.386;15.560;2023-06-26T05:52:39;100385.47;;;23.84;68.65
10720;BME280;5411;58.386;15.560;2023-06-26T05:55:10;100381.28;;;23.92;67.07
10720;BME280;5411;58.386;15.560;2023-06-26T05:57:43;100379.53;;;24.01;66.45
10720;BME280;5411;58.386;15.560;2023-06-26T06:00:14;100381.41;;;24.05;65.18
10720;BME280;5411;58.386;15.560;2023-06-26T06:02:43;100375.78;;;23.97;63.18
10720;BME280;5411;58.386;15.560;2023-06-26T06:05:16;100376.91;;;23.91;64.42
10720;BME280;5411;58.386;15.560;2023-06-26T06:07:47;100372.16;;;24.01;65.68
10720;BME280;5411;58.386;15.560;2023-06-26T06:10:19;100378.97;;;24.04;64.61
10720;BME280;5411;58.386;15.560;2023-06-26T06:12:48;100374.53;;;24.08;64.49
10720;BME280;5411;58.386;15.560;2023-06-26T06:15:17;100374.16;;;24.14;63.82
10720;BME280;5411;58.386;15.560;2023-06-26T06:17:47;100369.22;;;24.16;63.79
10720;BME280;5411;58.386;15.560;2023-06-26T06:20:18;100367.44;;;24.31;64.59
10720;BME280;5411;58.386;15.560;2023-06-26T06:22:48;100366.66;;;24.49;63.55
10720;BME280;5411;58.386;15.560;2023-06-26T06:25:17;100364.63;;;24.55;61.16
10720;BME280;5411;58.386;15.560;2023-06-26T06:27:45;100356.94;;;24.57;62.17
10720;BME280;5411;58.386;15.560;2023-06-26T06:30:14;100360.50;;;24.76;61.57
10720;BME280;5411;58.386;15.560;2023-06-26T06:32:50;100361.16;;;24.86;60.02
10720;BME280;5411;58.386;15.560;2023-06-26T06:35:21;100360.25;;;24.91;59.36
10720;BME280;5411;58.386;15.560;2023-06-26T06:37:54;100352.84;;;24.92;59.74
10720;BME280;5411;58.386;15.560;2023-06-26T06:40:23;100359.91;;;24.98;60.31
10720;BME280;5411;58.386;15.560;2023-06-26T06:42:56;100353.16;;;25.09;60.38
10720;BME280;5411;58.386;15.560;2023-06-26T06:45:25;100358.75;;;25.17;60.44
10720;BME280;5411;58.386;15.560;2023-06-26T06:47:55;100362.16;;;25.28;59.60
10720;BME280;5411;58.386;15.560;2023-06-26T06:50:27;100349.16;;;25.34;58.59
10720;BME280;5411;58.386;15.560;2023-06-26T06:52:57;100349.16;;;25.34;58.96
10720;BME280;5411;58.386;15.560;2023-06-26T06:55:25;100343.31;;;25.40;58.46
10720;BME280;5411;58.386;15.560;2023-06-26T06:57:54;100349.69;;;25.49;60.00
10720;BME280;5411;58.386;15.560;2023-06-26T07:00:26;100345.13;;;25.58;59.12
10720;BME280;5411;58.386;15.560;2023-06-26T07:02:55;100345.13;;;25.58;58.04
10720;BME280;5411;58.386;15.560;2023-06-26T07:05:26;100337.72;;;25.59;58.49
10720;BME280;5411;58.386;15.560;2023-06-26T07:07:54;100342.41;;;25.58;59.00
10720;BME280;5411;58.386;15.560;2023-06-26T07:10:31;100333.81;;;25.65;59.78
10720;BME280;5411;58.386;15.560;2023-06-26T07:13:18;100336.44;;;25.70;59.94
10720;BME280;5411;58.386;15.560;2023-06-26T07:15:47;100338.88;;;25.72;60.54
10720;BME280;5411;58.386;15.560;2023-06-26T07:18:19;100320.34;;;25.69;61.25
10720;BME280;5411;58.386;15.560;2023-06-26T07:20:58;100326.81;;;25.73;60.23
10720;BME280;5411;58.386;15.560;2023-06-26T07:23:29;100338.38;;;25.83;59.04
10720;BME280;5411;58.386;15.560;2023-06-26T07:25:57;100323.56;;;25.84;59.49
10720;BME280;5411;58.386;15.560;2023-06-26T07:28:26;100328.03;;;25.94;59.81
10720;BME280;5411;58.386;15.560;2023-06-26T07:30:55;100328.03;;;26.08;59.88
10720;BME280;5411;58.386;15.560;2023-06-26T07:33:24;100323.50;;;26.25;59.33
10720;BME280;5411;58.386;15.560;2023-06-26T07:35:54;100323.00;;;26.23;57.74
10720;BME280;5411;58.386;15.560;2023-06-26T07:38:23;100325.56;;;26.20;57.43
10720;BME280;5411;58.386;15.560;2023-06-26T07:40:53;100315.41;;;26.20;58.07
10720;BME280;5411;58.386;15.560;2023-06-26T07:43:21;100310.84;;;26.30;57.21
10720;BME280;5411;58.386;15.560;2023-06-26T07:45:50;100311.34;;;26.32;56.51
10720;BME280;5411;58.386;15.560;2023-06-26T07:48:20;100305.25;;;26.35;55.92
10720;BME280;5411;58.386;15.560;2023-06-26T07:50:49;100308.88;;;26.44;55.69
10720;BME280;5411;58.386;15.560;2023-06-26T07:53:19;100306.28;;;26.61;56.61
10720;BME280;5411;58.386;15.560;2023-06-26T07:55:48;100304.16;;;26.80;56.42
10720;BME280;5411;58.386;15.560;2023-06-26T07:58:16;100307.03;;;26.98;56.00
10720;BME280;5411;58.386;15.560;2023-06-26T08:00:47;100300.78;;;27.06;54.09
10720;BME280;5411;58.386;15.560;2023-06-26T08:03:18;100293.41;;;27.15;53.51
10720;BME280;5411;58.386;15.560;2023-06-26T08:06:01;100297.06;;;27.32;53.51
10720;BME280;5411;58.386;15.560;2023-06-26T08:08:31;100298.69;;;27.33;52.57
10720;BME280;5411;58.386;15.560;2023-06-26T08:11:01;100291.31;;;27.43;52.23
10720;BME280;5411;58.386;15.560;2023-06-26T08:13:32;100292.00;;;27.57;52.97
10720;BME280;5411;58.386;15.560;2023-06-26T08:16:01;100290.63;;;27.68;51.91
10720;BME280;5411;58.386;15.560;2023-06-26T08:18:29;100285.31;;;27.80;50.99
10720;BME280;5411;58.386;15.560;2023-06-26T08:20:58;100282.88;;;27.87;50.62
10720;BME280;5411;58.386;15.560;2023-06-26T08:23:27;100280.81;;;27.93;50.45
10720;BME280;5411;58.386;15.560;2023-06-26T08:25:57;100283.56;;;28.10;51.49
10720;BME280;5411;58.386;15.560;2023-06-26T08:28:27;100290.44;;;28.21;49.94
10720;BME280;5411;58.386;15.560;2023-06-26T08:30:56;100290.59;;;28.25;47.89
10720;BME280;5411;58.386;15.560;2023-06-26T08:33:25;100287.06;;;28.33;48.60
10720;BME280;5411;58.386;15.560;2023-06-26T08:35:53;100278.63;;;28.38;46.72
10720;BME280;5411;58.386;15.560;2023-06-26T08:38:22;100274.25;;;28.46;48.57
10720;BME280;5411;58.386;15.560;2023-06-26T08:40:51;100272.47;;;28.58;46.75
10720;BME280;5411;58.386;15.560;2023-06-26T08:43:21;100275.19;;;28.67;45.55
10720;BME280;5411;58.386;15.560;2023-06-26T08:45:50;100265.16;;;28.80;45.58
10720;BME280;5411;58.386;15.560;2023-06-26T08:48:21;100265.16;;;28.88;44.83
10720;BME280;5411;58.386;15.560;2023-06-26T08:50:52;100267.56;;;28.98;44.50
10720;BME280;5411;58.386;15.560;2023-06-26T08:53:29;100255.22;;;29.04;44.36
10720;BME280;5411;58.386;15.560;2023-06-26T08:56:03;100259.09;;;29.03;43.52
10720;BME280;5411;58.386;15.560;2023-06-26T08:58:36;100256.66;;;29.11;43.36
10720;BME280;5411;58.386;15.560;2023-06-26T09:01:11;100254.06;;;29.14;42.36
10720;BME280;5411;58.386;15.560;2023-06-26T09:03:41;100255.16;;;29.22;42.50
10720;BME280;5411;58.386;15.560;2023-06-26T09:06:10;100247.53;;;29.27;42.51
10720;BME280;5411;58.386;15.560;2023-06-26T09:08:41;100249.44;;;29.35;42.42
10720;BME280;5411;58.386;15.560;2023-06-26T09:11:10;100247.69;;;29.39;41.99
10720;BME280;5411;58.386;15.560;2023-06-26T09:13:40;100249.91;;;29.37;42.19
10720;BME280;5411;58.386;15.560;2023-06-26T09:16:09;100249.28;;;29.40;41.35
10720;BME280;5411;58.386;15.560;2023-06-26T09:18:41;100243.25;;;29.47;41.36
10720;BME280;5411;58.386;15.560;2023-06-26T09:21:10;100250.47;;;29.60;41.15
10720;BME280;5411;58.386;15.560;2023-06-26T09:23:42;100243.81;;;29.61;38.27
10720;BME280;5411;58.386;15.560;2023-06-26T09:26:12;100245.19;;;29.55;37.35
10720;BME280;5411;58.386;15.560;2023-06-26T09:28:45;100237.81;;;29.59;38.11
10720;BME280;5411;58.386;15.560;2023-06-26T09:31:13;100241.38;;;29.68;38.42
10720;BME280;5411;58.386;15.560;2023-06-26T09:34:01;100233.59;;;29.91;36.77
10720;BME280;5411;58.386;15.560;2023-06-26T09:36:30;100239.44;;;29.90;37.38
10720;BME280;5411;58.386;15.560;2023-06-26T09:39:12;100224.78;;;29.98;38.78
10720;BME280;5411;58.386;15.560;2023-06-26T09:41:42;100228.72;;;30.18;39.15
10720;BME280;5411;58.386;15.560;2023-06-26T09:44:13;100218.88;;;30.08;38.68
10720;BME280;5411;58.386;15.560;2023-06-26T09:46:45;100224.19;;;29.84;37.81
10720;BME280;5411;58.386;15.560;2023-06-26T09:49:14;100214.44;;;29.65;38.02
10720;BME280;5411;58.386;15.560;2023-06-26T09:51:42;100210.16;;;29.47;37.87
10720;BME280;5411;58.386;15.560;2023-06-26T09:54:11;100206.31;;;29.31;36.68
10720;BME280;5411;58.386;15.560;2023-06-26T09:56:40;100208.06;;;29.35;37.65
10720;BME280;5411;58.386;15.560;2023-06-26T09:59:08;100197.13;;;29.56;37.04
10720;BME280;5411;58.386;15.560;2023-06-26T10:01:46;100203.81;;;29.76;36.66
10720;BME280;5411;58.386;15.560;2023-06-26T10:04:20;100196.28;;;29.64;37.05
10720;BME280;5411;58.386;15.560;2023-06-26T10:06:49;100200.22;;;29.55;37.42
10720;BME280;5411;58.386;15.560;2023-06-26T10:09:20;100199.66;;;29.40;38.20
10720;BME280;5411;58.386;15.560;2023-06-26T10:12:00;100202.47;;;29.23;38.19
10720;BME280;5411;58.386;15.560;2023-06-26T10:14:35;100184.69;;;29.03;38.36
10720;BME280;5411;58.386;15.560;2023-06-26T10:17:08;100187.97;;;28.97;39.27
10720;BME280;5411;58.386;15.560;2023-06-26T10:19:38;100179.56;;;28.93;39.11
10720;BME280;5411;58.386;15.560;2023-06-26T10:22:08;100175.00;;;28.97;39.11
10720;BME280;5411;58.386;15.560;2023-06-26T10:24:39;100177.78;;;28.97;39.24
10720;BME280;5411;58.386;15.560;2023-06-26T10:27:14;100167.50;;;29.06;39.27
10720;BME280;5411;58.386;15.560;2023-06-26T10:29:45;100160.53;;;29.09;37.87
10720;BME280;5411;58.386;15.560;2023-06-26T10:32:17;100162.34;;;29.34;37.92
10720;BME280;5411;58.386;15.560;2023-06-26T10:34:48;100166.13;;;29.59;38.10
10720;BME280;5411;58.386;15.560;2023-06-26T10:37:41;100165.06;;;29.93;35.22
10720;BME280;5411;58.386;15.560;2023-06-26T10:40:13;100164.25;;;30.13;35.94
10720;BME280;5411;58.386;15.560;2023-06-26T10:42:45;100165.16;;;30.38;36.59
10720;BME280;5411;58.386;15.560;2023-06-26T10:45:16;100152.25;;;30.63;36.25
10720;BME280;5411;58.386;15.560;2023-06-26T10:47:48;100149.22;;;30.89;35.16
10720;BME280;5411;58.386;15.560;2023-06-26T10:50:22;100156.56;;;30.97;33.33
10720;BME280;5411;58.386;15.560;2023-06-26T10:53:10;100155.44;;;30.98;33.09
10720;BME280;5411;58.386;15.560;2023-06-26T10:55:42;100145.06;;;31.07;32.58
10720;BME280;5411;58.386;15.560;2023-06-26T10:58:34;100144.72;;;31.21;34.01
10720;BME280;5411;58.386;15.560;2023-06-26T11:01:18;100137.56;;;31.32;33.57
10720;BME280;5411;58.386;15.560;2023-06-26T11:04:05;100143.59;;;31.22;32.01
10720;BME280;5411;58.386;15.560;2023-06-26T11:06:35;100136.31;;;31.17;31.35
10720;BME280;5411;58.386;15.560;2023-06-26T11:09:10;100144.19;;;31.15;31.79
10720;BME280;5411;58.386;15.560;2023-06-26T11:11:58;100133.94;;;31.16;34.57
10720;BME280;5411;58.386;15.560;2023-06-26T11:14:33;100124.00;;;31.15;37.65
10720;BME280;5411;58.386;15.560;2023-06-26T11:17:07;100125.34;;;31.09;37.41
10720;BME280;5411;58.386;15.560;2023-06-26T11:19:42;100128.47;;;30.83;37.39
10720;BME280;5411;58.386;15.560;2023-06-26T11:22:12;100123.94;;;30.66;41.36
10720;BME280;5411;58.386;15.560;2023-06-26T11:24:49;100133.81;;;30.55;42.05
10720;BME280;5411;58.386;15.560;2023-06-26T11:27:22;100134.72;;;30.47;41.46
10720;BME280;5411;58.386;15.560;2023-06-26T11:29:51;100138.63;;;30.46;41.77
10720;BME280;5411;58.386;15.560;2023-06-26T11:32:20;100138.63;;;30.46;42.20
10720;BME280;5411;58.386;15.560;2023-06-26T11:34:49;100130.06;;;30.39;42.25
10720;BME280;5411;58.386;15.560;2023-06-26T11:37:19;100125.06;;;30.20;42.96
10720;BME280;5411;58.386;15.560;2023-06-26T11:39:52;100124.56;;;30.06;43.25
10720;BME280;5411;58.386;15.560;2023-06-26T11:42:22;100125.75;;;29.96;43.63
10720;BME280;5411;58.386;15.560;2023-06-26T11:44:52;100130.19;;;29.89;43.48
10720;BME280;5411;58.386;15.560;2023-06-26T11:47:22;100122.66;;;29.98;43.78
10720;BME280;5411;58.386;15.560;2023-06-26T11:49:52;100127.22;;;29.94;42.67
10720;BME280;5411;58.386;15.560;2023-06-26T11:52:21;100126.56;;;29.97;43.03
10720;BME280;5411;58.386;15.560;2023-06-26T11:54:50;100115.13;;;30.07;42.24
10720;BME280;5411;58.386;15.560;2023-06-26T11:57:18;100121.91;;;30.09;39.94
10720;BME280;5411;58.386;15.560;2023-06-26T11:59:50;100121.00;;;30.05;40.56
10720;BME280;5411;58.386;15.560;2023-06-26T12:02:22;100114.53;;;30.01;39.62
10720;BME280;5411;58.386;15.560;2023-06-26T12:05:04;100118.69;;;30.07;39.73
10720;BME280;5411;58.386;15.560;2023-06-26T12:07:35;100109.03;;;30.13;39.39
10720;BME280;5411;58.386;15.560;2023-06-26T12:10:14;100109.34;;;30.00;37.87
10720;BME280;5411;58.386;15.560;2023-06-26T12:12:43;100111.75;;;30.01;38.56
10720;BME280;5411;58.386;15.560;2023-06-26T12:15:17;100119.03;;;29.64;36.98
10720;BME280;5411;58.386;15.560;2023-06-26T12:17:45;100116.94;;;29.40;39.08
10720;BME280;5411;58.386;15.560;2023-06-26T12:20:20;100111.66;;;29.18;39.43
10720;BME280;5411;58.386;15.560;2023-06-26T12:22:49;100122.28;;;29.07;41.28
10720;BME280;5411;58.386;15.560;2023-06-26T12:25:23;100116.34;;;28.97;43.02
10720;BME280;5411;58.386;15.560;2023-06-26T12:27:52;100117.63;;;28.99;42.33
10720;BME280;5411;58.386;15.560;2023-06-26T12:30:21;100113.03;;;29.03;42.76
10720;BME280;5411;58.386;15.560;2023-06-26T12:32:51;100104.50;;;28.96;42.04
10720;BME280;5411;58.386;15.560;2023-06-26T12:35:22;100102.72;;;28.92;42.06
10720;BME280;5411;58.386;15.560;2023-06-26T12:37:53;100092.53;;;28.92;41.82
10720;BME280;5411;58.386;15.560;2023-06-26T12:40:26;100091.38;;;28.93;43.28
10720;BME280;5411;58.386;15.560;2023-06-26T12:43:02;100099.84;;;28.88;44.24
10720;BME280;5411;58.386;15.560;2023-06-26T12:45:37;100095.66;;;28.82;45.15
10720;BME280;5411;58.386;15.560;2023-06-26T12:48:11;100102.81;;;28.66;45.11
10720;BME280;5411;58.386;15.560;2023-06-26T12:50:45;100091.41;;;28.47;46.41
10720;BME280;5411;58.386;15.560;2023-06-26T12:53:17;100081.72;;;28.32;46.92
10720;BME280;5411;58.386;15.560;2023-06-26T12:55:48;100083.00;;;28.17;47.37
10720;BME280;5411;58.386;15.560;2023-06-26T12:58:20;100084.31;;;28.11;48.32
10720;BME280;5411;58.386;15.560;2023-06-26T13:00:50;100081.25;;;28.04;48.78
10720;BME280;5411;58.386;15.560;2023-06-26T13:03:20;100067.84;;;27.94;48.82
10720;BME280;5411;58.386;15.560;2023-06-26T13:05:50;100080.31;;;27.83;49.18
10720;BME280;5411;58.386;15.560;2023-06-26T13:08:20;100062.50;;;27.89;49.63
10720;BME280;5411;58.386;15.560;2023-06-26T13:10:49;100067.03;;;27.93;49.80
10720;BME280;5411;58.386;15.560;2023-06-26T13:13:20;100065.22;;;27.97;48.87